Time;durP1;ratioP1;P1;durP2;ratioP2;P2;SDS_P1;SDS_P2;PMS_P1;PMS_P2;Temp;Humidity;BMP_temperature;BMP_pressure;BME280_temperature;BME280_humidity;BME280_pressure;Samples;Min_cycle;Max_cycle;Signal;HPM_P1;HPM_P2
2022/04/26 03:38:30;;;;;;;4.85;3.58;;;24.20;37.40;;;;;;5031634;28;20905;-68
2022/04/26 03:40:59;;;;;;;5.97;3.97;;;24.10;38.20;;;;;;5031730;28;20387;-69
2022/04/26 03:43:24;;;;;;;7.72;5.50;;;24.20;38.40;;;;;;5031839;28;20510;-68
2022/04/26 03:45:50;;;;;;;8.33;5.17;;;24.30;39.00;;;;;;5031815;28;20818;-68
2022/04/26 03:48:16;;;;;;;6.13;4.15;;;24.30;39.80;;;;;;5031719;28;20406;-69
2022/04/26 03:50:41;;;;;;;7.03;4.80;;;24.30;39.80;;;;;;5031230;28;20438;-68
2022/04/26 03:53:07;;;;;;;5.83;4.33;;;24.30;39.40;;;;;;5031626;28;20402;-69
2022/04/26 03:55:32;;;;;;;8.23;4.35;;;24.30;39.20;;;;;;5031640;28;20441;-69
2022/04/26 03:57:58;;;;;;;6.87;4.40;;;24.30;39.30;;;;;;5031724;28;20480;-70
2022/04/26 04:00:24;;;;;;;7.80;4.40;;;24.40;39.30;;;;;;5031546;28;20771;-68
2022/04/26 04:02:50;;;;;;;6.47;4.00;;;24.40;39.50;;;;;;5031046;28;20429;-65
2022/04/26 04:05:15;;;;;;;5.95;4.22;;;24.30;39.00;;;;;;5031820;28;20400;-66
2022/04/26 04:07:41;;;;;;;5.80;4.00;;;24.40;38.50;;;;;;5031480;28;20440;-65
2022/04/26 04:10:07;;;;;;;8.97;4.07;;;24.30;38.80;;;;;;5031003;28;20854;-68
2022/04/26 04:12:33;;;;;;;7.70;3.93;;;24.30;39.30;;;;;;5030927;28;20438;-65
2022/04/26 04:14:58;;;;;;;7.82;3.88;;;24.30;39.40;;;;;;5029766;28;20469;-67
2022/04/26 04:17:24;;;;;;;8.47;3.87;;;24.40;39.10;;;;;;5032665;28;20403;-68
2022/04/26 04:19:50;;;;;;;6.65;3.78;;;24.40;39.20;;;;;;5031357;28;20383;-68
2022/04/26 04:22:15;;;;;;;8.48;3.97;;;24.50;38.40;;;;;;5032445;28;20402;-68
2022/04/26 04:24:41;;;;;;;8.13;3.80;;;24.40;39.20;;;;;;5031097;28;20387;-65
2022/04/26 04:27:09;;;;;;;5.35;3.88;;;24.50;39.50;;;;;;5030553;28;20421;-69
2022/04/26 04:29:34;;;;;;;9.57;4.00;;;24.50;39.20;;;;;;5037418;28;20393;-69
2022/04/26 04:32:01;;;;;;;5.70;3.75;;;24.50;39.60;;;;;;5048878;28;20494;-68
2022/04/26 04:34:26;;;;;;;7.18;3.78;;;24.40;39.70;;;;;;5040347;28;20393;-70
2022/04/26 04:36:52;;;;;;;8.13;3.70;;;24.50;39.80;;;;;;5041299;28;20785;-71
2022/04/26 04:39:20;;;;;;;8.13;4.07;;;24.50;39.80;;;;;;5047885;28;20392;-70
2022/04/26 04:41:52;;;;;;;6.50;4.20;;;24.50;40.50;;;;;;5050860;28;20473;-70
2022/04/26 04:44:18;;;;;;;11.50;3.85;;;24.50;39.40;;;;;;5050861;28;20960;-66
2022/04/26 04:46:45;;;;;;;9.98;4.28;;;24.50;39.10;;;;;;5045099;28;20393;-68
2022/04/26 04:49:11;;;;;;;11.00;4.40;;;24.50;39.70;;;;;;5046246;28;20421;-69
2022/04/26 04:51:37;;;;;;;8.02;4.10;;;24.50;39.50;;;;;;5046916;28;20387;-67
2022/04/26 04:54:04;;;;;;;6.97;4.50;;;24.50;39.40;;;;;;5044927;28;20389;-68
2022/04/26 04:56:29;;;;;;;7.50;4.67;;;24.40;39.60;;;;;;5039775;28;20433;-67
2022/04/26 04:58:55;;;;;;;8.05;4.80;;;24.50;39.50;;;;;;5034733;28;20827;-68
2022/04/26 05:01:21;;;;;;;7.10;5.00;;;24.50;39.20;;;;;;5034524;28;20446;-68
2022/04/26 05:03:47;;;;;;;8.45;5.13;;;24.50;39.00;;;;;;5034818;28;20423;-69
2022/04/26 05:06:14;;;;;;;8.07;5.00;;;24.50;39.20;;;;;;5034485;28;21006;-69
2022/04/26 05:08:41;;;;;;;9.68;5.90;;;24.50;39.30;;;;;;5034186;28;20391;-69
2022/04/26 05:11:06;;;;;;;9.00;5.57;;;24.50;38.90;;;;;;5034758;28;20391;-70
2022/04/26 05:13:32;;;;;;;12.10;5.60;;;24.50;39.00;;;;;;5033120;28;20418;-71
2022/04/26 05:15:58;;;;;;;7.97;5.43;;;24.50;38.60;;;;;;5034386;28;20744;-65
2022/04/26 05:18:24;;;;;;;8.07;5.22;;;24.40;39.10;;;;;;5034463;28;20395;-66
2022/04/26 05:20:50;;;;;;;11.52;5.50;;;24.50;38.80;;;;;;5033713;28;20490;-67
2022/04/26 05:25:59;;;;;;;11.40;4.93;;;24.40;39.60;;;;;;5034433;28;20393;-67
2022/04/26 05:28:25;;;;;;;10.63;4.97;;;24.50;39.90;;;;;;5034272;28;20825;-66
2022/04/26 05:30:55;;;;;;;8.17;4.60;;;24.60;40.20;;;;;;5033775;28;21100;-67
2022/04/26 05:33:21;;;;;;;8.85;4.60;;;24.60;40.20;;;;;;5034329;28;20732;-67
2022/04/26 05:35:48;;;;;;;9.02;4.60;;;24.60;40.30;;;;;;5032659;28;20830;-68
2022/04/26 05:38:15;;;;;;;11.43;4.60;;;24.70;40.30;;;;;;5034227;28;20430;-66
2022/04/26 05:40:41;;;;;;;14.00;4.60;;;24.70;40.20;;;;;;5033757;28;20383;-67
2022/04/26 05:43:07;;;;;;;7.72;4.20;;;24.70;40.30;;;;;;5034125;28;20423;-67
2022/04/26 05:45:33;;;;;;;5.85;4.00;;;24.70;40.60;;;;;;5034111;28;20422;-66
2022/04/26 05:47:58;;;;;;;5.88;4.32;;;24.70;41.00;;;;;;5034058;28;20453;-66
2022/04/26 05:50:30;;;;;;;9.52;4.20;;;24.70;40.60;;;;;;5038181;28;20393;-67
2022/04/26 05:52:57;;;;;;;5.80;4.10;;;24.70;39.90;;;;;;5050954;28;20935;-70
2022/04/26 05:55:23;;;;;;;8.07;3.97;;;24.70;40.00;;;;;;5054119;28;20413;-67
2022/04/26 05:57:48;;;;;;;7.85;3.90;;;24.60;39.50;;;;;;5048406;28;20806;-66
2022/04/26 06:00:15;;;;;;;5.47;3.63;;;24.60;39.30;;;;;;5054417;28;20398;-65
2022/04/26 06:02:42;;;;;;;6.27;3.77;;;24.60;39.50;;;;;;5051375;28;20405;-65
2022/04/26 06:05:08;;;;;;;8.10;3.90;;;24.50;39.20;;;;;;5053249;28;20411;-65
2022/04/26 06:07:34;;;;;;;6.53;3.83;;;24.60;38.90;;;;;;5061003;28;20402;-66
2022/04/26 06:10:01;;;;;;;6.65;4.07;;;24.60;38.90;;;;;;5066186;28;20450;-65
2022/04/26 06:12:27;;;;;;;5.35;3.88;;;24.60;38.80;;;;;;5050296;28;20392;-69
2022/04/26 06:14:53;;;;;;;6.22;3.80;;;24.50;38.70;;;;;;5053622;28;20398;-70
2022/04/26 06:17:19;;;;;;;5.57;3.90;;;24.60;38.60;;;;;;5053591;28;20870;-65
2022/04/26 06:19:45;;;;;;;6.97;3.40;;;24.60;39.10;;;;;;5052912;28;20386;-66
2022/04/26 06:22:11;;;;;;;5.13;3.53;;;24.60;38.40;;;;;;5053174;28;20477;-65
2022/04/26 06:24:36;;;;;;;4.97;3.40;;;24.60;38.30;;;;;;5052603;28;20386;-65
2022/04/26 06:27:02;;;;;;;4.28;3.58;;;24.60;38.20;;;;;;5052752;28;20393;-71
2022/04/26 06:29:29;;;;;;;5.25;3.47;;;24.60;38.10;;;;;;5052978;28;20385;-65
2022/04/26 06:31:55;;;;;;;5.20;3.35;;;24.60;38.10;;;;;;5052737;28;20390;-70
2022/04/26 06:34:20;;;;;;;4.75;3.50;;;24.50;37.90;;;;;;5052994;28;20912;-65
2022/04/26 06:36:46;;;;;;;4.78;3.53;;;24.50;37.90;;;;;;5052182;28;20429;-65
2022/04/26 06:39:12;;;;;;;4.73;3.50;;;24.50;37.90;;;;;;5052694;28;20477;-65
2022/04/26 06:41:38;;;;;;;3.97;3.40;;;24.60;37.90;;;;;;5052259;28;20398;-67
2022/04/26 06:44:04;;;;;;;3.78;3.08;;;24.60;37.90;;;;;;5051531;28;20394;-69
2022/04/26 06:46:35;;;;;;;4.13;3.30;;;24.60;37.80;;;;;;5053025;28;20389;-72
2022/04/26 06:49:03;;;;;;;4.23;3.00;;;24.50;37.70;;;;;;5051542;28;20455;-70
2022/04/26 06:51:33;;;;;;;4.33;3.53;;;24.50;37.70;;;;;;5039507;28;20458;-73
2022/04/26 06:53:59;;;;;;;4.00;3.22;;;24.50;37.80;;;;;;5031945;28;20383;-71
2022/04/26 06:56:24;;;;;;;4.28;3.05;;;24.50;37.60;;;;;;5032282;28;20469;-72
2022/04/26 06:58:50;;;;;;;4.90;3.20;;;24.50;37.60;;;;;;5030672;28;20760;-65
2022/04/26 07:01:15;;;;;;;4.85;3.10;;;24.60;37.60;;;;;;5030931;28;20415;-66
2022/04/26 07:03:41;;;;;;;3.85;3.03;;;24.60;37.60;;;;;;5031810;28;20395;-65
2022/04/26 07:06:07;;;;;;;4.00;3.50;;;24.60;37.60;;;;;;5031052;28;20487;-65
2022/04/26 07:08:32;;;;;;;3.45;3.00;;;24.50;37.50;;;;;;5031878;28;20406;-65
2022/04/26 07:10:58;;;;;;;3.40;2.90;;;24.60;37.50;;;;;;5031168;28;20379;-65
2022/04/26 07:13:24;;;;;;;4.50;3.10;;;24.60;37.50;;;;;;5032001;28;20395;-65
2022/04/26 07:15:49;;;;;;;3.42;2.90;;;24.60;37.50;;;;;;5031752;28;20469;-68
2022/04/26 07:18:15;;;;;;;3.70;3.30;;;24.60;37.50;;;;;;5032072;28;20387;-65
2022/04/26 07:20:45;;;;;;;3.33;2.92;;;24.50;37.40;;;;;;5031680;28;20398;-65
2022/04/26 07:23:12;;;;;;;3.60;2.83;;;24.60;37.40;;;;;;5032058;28;20720;-66
2022/04/26 07:25:38;;;;;;;3.42;2.90;;;24.50;37.30;;;;;;5031764;28;20391;-71
2022/04/26 07:28:05;;;;;;;4.05;3.10;;;24.60;37.40;;;;;;5031925;28;20422;-66
2022/04/26 07:30:34;;;;;;;5.22;3.50;;;24.50;37.40;;;;;;5031935;28;20433;-66
2022/04/26 07:35:54;;;;;;;4.15;3.33;;;24.50;37.40;;;;;;5031537;28;20414;-66
2022/04/26 07:38:19;;;;;;;4.68;4.00;;;24.50;37.30;;;;;;5031593;28;20419;-65
2022/04/26 07:40:46;;;;;;;3.90;3.60;;;24.50;37.30;;;;;;5031291;28;20461;-65
2022/04/26 07:43:12;;;;;;;5.38;3.30;;;24.50;37.20;;;;;;5030414;28;20422;-65
2022/04/26 07:45:40;;;;;;;4.30;2.90;;;24.50;37.20;;;;;;5031495;28;20391;-66
2022/04/26 07:48:07;;;;;;;3.70;3.13;;;24.50;37.40;;;;;;5031725;28;20863;-65
2022/04/26 07:50:34;;;;;;;4.53;3.00;;;24.50;37.70;;;;;;5031628;28;20912;-65
2022/04/26 07:53:01;;;;;;;3.80;3.00;;;24.40;37.70;;;;;;5031001;28;20383;-66
2022/04/26 07:55:28;;;;;;;5.22;2.72;;;24.40;37.90;;;;;;5033152;28;20465;-66
2022/04/26 07:57:54;;;;;;;4.63;2.72;;;24.40;38.00;;;;;;5031293;28;20444;-65
2022/04/26 08:00:20;;;;;;;3.95;2.80;;;24.40;37.90;;;;;;5031446;28;20387;-65
2022/04/26 08:02:46;;;;;;;4.70;2.60;;;24.40;38.20;;;;;;5030894;28;20407;-67
2022/04/26 08:05:14;;;;;;;3.55;2.53;;;24.40;37.80;;;;;;5030159;28;20399;-70
2022/04/26 08:07:41;;;;;;;8.38;4.95;;;24.40;37.70;;;;;;5029979;28;20759;-70
2022/04/26 08:10:11;;;;;;;10.02;5.30;;;24.40;37.60;;;;;;5031434;28;20895;-70
2022/04/26 08:12:41;;;;;;;7.07;5.00;;;24.40;37.70;;;;;;5031218;28;20791;-70
2022/04/26 08:15:08;;;;;;;9.55;4.70;;;24.30;37.70;;;;;;5031421;28;20395;-70
2022/04/26 08:17:33;;;;;;;5.20;3.78;;;24.30;37.70;;;;;;5029810;28;20425;-68
2022/04/26 08:19:59;;;;;;;5.68;3.47;;;24.30;37.60;;;;;;5030998;28;20445;-69
2022/04/26 08:22:25;;;;;;;4.25;3.20;;;24.30;37.70;;;;;;5030774;28;20430;-69
2022/04/26 08:27:35;;;;;;;3.80;3.20;;;24.40;37.80;;;;;;5030859;28;20414;-70
2022/04/26 08:30:04;;;;;;;4.60;3.00;;;24.40;37.60;;;;;;5030817;28;20880;-69
2022/04/26 08:32:45;;;;;;;4.90;3.10;;;24.40;37.60;;;;;;5030898;28;20939;-70
2022/04/26 08:35:13;;;;;;;3.47;2.90;;;24.40;37.50;;;;;;5030780;28;20399;-69
2022/04/26 08:37:39;;;;;;;5.30;2.95;;;24.40;37.50;;;;;;5030703;28;20478;-70
2022/04/26 08:40:07;;;;;;;4.03;2.87;;;24.40;37.50;;;;;;5029405;28;20470;-70
2022/04/26 08:42:41;;;;;;;3.85;2.80;;;24.40;37.40;;;;;;5048779;28;20401;-69
2022/04/26 08:45:09;;;;;;;4.43;2.70;;;24.40;37.40;;;;;;5050715;28;20393;-70
2022/04/26 08:53:05;;;;;;;3.93;3.00;;;24.40;37.30;;;;;;5050247;28;20413;-70
2022/04/26 08:55:31;;;;;;;3.90;2.70;;;24.40;37.50;;;;;;5050336;28;20406;-66
2022/04/26 08:57:58;;;;;;;5.88;2.90;;;24.40;37.50;;;;;;5050316;28;20400;-69
2022/04/26 09:00:24;;;;;;;3.38;2.70;;;24.30;37.50;;;;;;5049231;28;20808;-70
2022/04/26 09:03:02;;;;;;;4.93;2.78;;;24.40;37.60;;;;;;5050447;28;20409;-70
2022/04/26 09:05:28;;;;;;;5.37;2.97;;;24.30;37.60;;;;;;5051228;28;20402;-70
2022/04/26 09:07:54;;;;;;;5.82;2.80;;;24.30;37.80;;;;;;5038358;28;20496;-71
2022/04/26 09:10:21;;;;;;;8.95;2.90;;;24.30;38.10;;;;;;5035570;28;20391;-69
2022/04/26 09:13:10;;;;;;;6.40;3.22;;;24.30;37.90;;;;;;5055679;28;20401;-72
2022/04/26 09:15:39;;;;;;;3.90;2.80;;;24.40;38.00;;;;;;5043471;28;20440;-70
2022/04/26 09:18:15;;;;;;;4.47;2.67;;;24.40;38.20;;;;;;5050640;28;20386;-72
2022/04/26 09:20:43;;;;;;;4.83;2.50;;;24.40;37.80;;;;;;5040578;28;20387;-72
2022/04/26 09:23:16;;;;;;;5.13;2.70;;;24.30;38.70;;;;;;5038192;28;20763;-71
2022/04/26 09:25:43;;;;;;;6.43;2.70;;;24.40;38.20;;;;;;5034050;28;20437;-71
2022/04/26 09:28:09;;;;;;;4.33;2.70;;;24.40;38.00;;;;;;5030822;28;20453;-70
2022/04/26 09:30:36;;;;;;;6.07;2.63;;;24.40;38.00;;;;;;5030660;28;20437;-71
2022/04/26 09:33:01;;;;;;;7.32;2.60;;;24.50;37.90;;;;;;5033849;28;20399;-71
2022/04/26 09:35:29;;;;;;;5.80;2.47;;;24.40;37.90;;;;;;5034056;28;20460;-70
2022/04/26 09:37:55;;;;;;;4.68;2.60;;;24.50;37.80;;;;;;5034064;28;20446;-71
2022/04/26 09:40:21;;;;;;;4.57;2.78;;;24.50;37.70;;;;;;5034075;28;20387;-71
2022/04/26 09:42:48;;;;;;;3.05;2.42;;;24.50;37.60;;;;;;5033517;28;20768;-72
2022/04/26 09:45:16;;;;;;;3.33;2.47;;;24.50;37.50;;;;;;5032289;28;20450;-72
2022/04/26 09:47:43;;;;;;;3.40;2.53;;;24.60;37.50;;;;;;5033955;28;20431;-68
2022/04/26 09:50:12;;;;;;;3.72;2.40;;;24.60;37.50;;;;;;5033860;28;20380;-70
2022/04/26 09:52:38;;;;;;;3.03;2.30;;;24.50;37.30;;;;;;5033823;28;20544;-68
2022/04/26 09:55:07;;;;;;;6.18;2.67;;;24.50;37.30;;;;;;5031974;28;20398;-72
2022/04/26 09:57:35;;;;;;;4.45;2.50;;;24.40;37.60;;;;;;5033245;28;21034;-71
2022/04/26 10:00:03;;;;;;;7.78;2.50;;;24.40;37.80;;;;;;5033133;28;20465;-70
2022/04/26 10:02:32;;;;;;;7.03;2.97;;;24.40;37.80;;;;;;5033589;28;20426;-67
2022/04/26 10:05:05;;;;;;;7.85;2.90;;;24.40;37.70;;;;;;5033068;28;20398;-69
2022/04/26 10:07:40;;;;;;;6.35;2.30;;;24.40;38.30;;;;;;5033117;28;20383;-68
2022/04/26 10:10:06;;;;;;;5.63;2.78;;;24.40;38.10;;;;;;5032240;28;20917;-67
2022/04/26 10:12:33;;;;;;;5.93;3.03;;;24.40;38.10;;;;;;5031895;28;20481;-68
2022/04/26 10:15:04;;;;;;;5.05;2.80;;;24.40;38.20;;;;;;5032770;28;20398;-67
2022/04/26 10:17:32;;;;;;;6.07;3.00;;;24.50;37.70;;;;;;5031764;28;20848;-68
2022/04/26 10:20:02;;;;;;;6.88;2.72;;;24.50;38.80;;;;;;5031967;28;20403;-68
2022/04/26 10:23:00;;;;;;;5.45;2.83;;;24.50;38.40;;;;;;5033296;28;20398;-68
2022/04/26 10:25:27;;;;;;;5.15;2.80;;;24.50;38.50;;;;;;5033171;28;20457;-66
2022/04/26 10:28:24;;;;;;;6.55;2.90;;;24.40;38.50;;;;;;5033024;28;20392;-68
2022/04/26 10:30:51;;;;;;;4.32;2.63;;;24.50;38.40;;;;;;5032774;28;20470;-68
2022/04/26 10:33:37;;;;;;;6.13;2.70;;;24.50;38.40;;;;;;5031341;28;20399;-69
2022/04/26 10:36:28;;;;;;;5.45;2.67;;;24.50;38.00;;;;;;5031968;28;20422;-68
2022/04/26 10:39:06;;;;;;;3.15;2.38;;;24.50;38.30;;;;;;5031785;28;20426;-68
2022/04/26 10:41:36;;;;;;;5.78;2.58;;;24.50;38.50;;;;;;5032862;28;20903;-68
2022/04/26 10:44:32;;;;;;;4.33;2.50;;;24.50;37.60;;;;;;5032229;28;20387;-68
2022/04/26 10:47:04;;;;;;;4.27;2.60;;;24.50;38.30;;;;;;5024598;28;20941;-68
2022/04/26 10:49:32;;;;;;;3.60;2.50;;;24.50;38.60;;;;;;5043343;28;20385;-69
2022/04/26 10:52:19;;;;;;;4.40;2.55;;;24.50;38.70;;;;;;5050592;28;20393;-66
2022/04/26 10:57:16;;;;;;;3.97;2.50;;;24.40;38.60;;;;;;5052327;28;20428;-68
2022/04/26 10:59:54;;;;;;;6.30;3.03;;;24.40;38.10;;;;;;5052647;28;20396;-68
2022/04/26 11:02:22;;;;;;;2.95;2.50;;;24.40;38.70;;;;;;5050054;28;20480;-68
2022/04/26 11:04:56;;;;;;;3.55;2.88;;;24.40;38.90;;;;;;5052235;28;20413;-67
2022/04/26 11:07:25;;;;;;;5.03;2.70;;;24.40;38.40;;;;;;5052189;28;20388;-68
2022/04/26 11:09:53;;;;;;;6.25;3.05;;;24.40;38.40;;;;;;5052172;28;20781;-69
2022/04/26 11:12:27;;;;;;;5.70;2.97;;;24.50;38.80;;;;;;5052303;28;20413;-67
2022/04/26 11:14:55;;;;;;;6.47;3.60;;;24.50;38.70;;;;;;5051616;28;20386;-69
2022/04/26 11:17:22;;;;;;;6.55;4.07;;;24.40;38.20;;;;;;5051567;28;20511;-68
2022/04/26 11:19:53;;;;;;;8.10;4.10;;;24.50;38.70;;;;;;5050674;28;20484;-67
2022/04/26 11:22:20;;;;;;;5.20;3.60;;;24.40;38.30;;;;;;5051963;28;20873;-66
2022/04/26 11:30:27;;;;;;;8.63;3.50;;;24.30;38.50;;;;;;5051731;28;20439;-69
2022/04/26 11:32:56;;;;;;;8.52;3.65;;;24.30;38.30;;;;;;5051471;28;20469;-69
2022/04/26 11:35:22;;;;;;;10.88;3.45;;;24.30;38.50;;;;;;5051323;28;20503;-69
2022/04/26 11:37:50;;;;;;;5.17;3.53;;;24.30;38.50;;;;;;5051529;28;20856;-71
2022/04/26 11:40:28;;;;;;;8.35;3.55;;;24.30;38.70;;;;;;5051872;28;20381;-66
2022/04/26 11:42:58;;;;;;;6.27;3.40;;;24.30;38.70;;;;;;5052194;28;20474;-71
2022/04/26 11:45:32;;;;;;;7.53;3.53;;;24.30;38.40;;;;;;5051922;28;20451;-70
2022/04/26 11:47:58;;;;;;;8.52;3.60;;;24.40;38.40;;;;;;5050644;28;20390;-70
2022/04/26 11:50:29;;;;;;;5.85;3.78;;;24.40;38.70;;;;;;5051807;28;20428;-68
2022/04/26 11:53:04;;;;;;;9.77;3.95;;;24.40;38.50;;;;;;5050116;28;20392;-70
2022/04/26 11:55:34;;;;;;;7.85;3.55;;;24.40;38.80;;;;;;5050607;28;20758;-71
2022/04/26 11:58:16;;;;;;;9.93;3.60;;;24.40;38.60;;;;;;5051337;28;20392;-71
2022/04/26 12:01:05;;;;;;;7.10;3.60;;;24.40;38.30;;;;;;5051491;28;20409;-71
2022/04/26 12:03:32;;;;;;;7.13;3.45;;;24.40;38.80;;;;;;5051489;28;20405;-72
2022/04/26 12:06:07;;;;;;;6.75;3.67;;;24.30;38.70;;;;;;5051243;28;20732;-67
2022/04/26 12:08:46;;;;;;;6.88;3.70;;;24.30;38.60;;;;;;5051415;28;20408;-67
2022/04/26 12:11:13;;;;;;;6.55;3.75;;;24.40;38.10;;;;;;5050840;28;20468;-69
2022/04/26 12:13:39;;;;;;;7.28;3.83;;;24.50;38.00;;;;;;5051474;28;20389;-71
2022/04/26 12:16:21;;;;;;;5.27;3.50;;;24.50;37.80;;;;;;5051311;28;20455;-70
2022/04/26 12:18:55;;;;;;;6.78;3.80;;;24.50;37.80;;;;;;5051449;28;20455;-69
2022/04/26 12:21:22;;;;;;;6.15;3.67;;;24.60;37.90;;;;;;5051226;28;20385;-67
2022/04/26 12:24:09;;;;;;;5.57;3.85;;;24.60;37.90;;;;;;5049903;28;20746;-71
2022/04/26 12:26:35;;;;;;;5.07;3.63;;;24.60;37.90;;;;;;5049997;28;20398;-74
2022/04/26 12:29:01;;;;;;;6.45;3.53;;;24.60;38.00;;;;;;5049623;28;20401;-66
2022/04/26 12:31:30;;;;;;;7.13;3.73;;;24.60;38.00;;;;;;5051469;28;20381;-70
2022/04/26 12:34:13;;;;;;;6.00;3.53;;;24.60;38.30;;;;;;5050151;28;20394;-71
2022/04/26 12:36:57;;;;;;;4.32;3.42;;;24.50;38.40;;;;;;5050999;28;20413;-71
2022/04/26 12:39:25;;;;;;;6.93;3.60;;;24.60;38.70;;;;;;5050812;28;20734;-71
2022/04/26 12:41:53;;;;;;;6.07;3.53;;;24.60;38.70;;;;;;5051253;28;20472;-73
2022/04/26 12:44:19;;;;;;;5.43;3.67;;;24.60;38.90;;;;;;5051084;28;20381;-71
2022/04/26 12:46:46;;;;;;;6.32;3.85;;;24.60;38.40;;;;;;5052061;28;20394;-67
2022/04/26 12:51:57;;;;;;;6.50;3.80;;;24.50;38.40;;;;;;5050949;28;20388;-68
2022/04/26 12:54:23;;;;;;;4.35;3.45;;;24.50;38.30;;;;;;5051052;28;20484;-70
2022/04/26 12:57:04;;;;;;;6.82;3.80;;;24.50;38.20;;;;;;5050798;28;20504;-70
2022/04/26 12:59:36;;;;;;;4.97;3.80;;;24.60;38.20;;;;;;5049548;28;20392;-69
2022/04/26 13:02:02;;;;;;;4.65;3.85;;;24.50;38.10;;;;;;5065983;28;20451;-68
2022/04/26 13:04:28;;;;;;;5.25;3.80;;;24.60;38.10;;;;;;5050665;28;20439;-69
2022/04/26 13:06:53;;;;;;;6.40;3.60;;;24.60;38.00;;;;;;5051400;28;20389;-70
2022/04/26 13:09:19;;;;;;;4.63;3.70;;;24.60;38.00;;;;;;5053046;28;20757;-70
2022/04/26 13:11:45;;;;;;;4.23;3.67;;;24.60;38.00;;;;;;5053058;28;20397;-69
2022/04/26 13:14:11;;;;;;;4.68;3.40;;;24.60;37.90;;;;;;5054507;28;20390;-69
2022/04/26 13:16:36;;;;;;;3.63;3.33;;;24.60;37.90;;;;;;5054343;28;20416;-67
2022/04/26 13:19:02;;;;;;;3.92;3.17;;;24.60;37.90;;;;;;5054266;28;20374;-69
2022/04/26 13:21:28;;;;;;;4.10;3.33;;;24.50;37.90;;;;;;5054120;28;20447;-70
2022/04/26 13:23:57;;;;;;;4.07;3.67;;;24.50;37.80;;;;;;5054358;28;20385;-70
2022/04/26 13:26:23;;;;;;;4.10;3.70;;;24.50;37.80;;;;;;5054386;28;20878;-69
2022/04/26 13:28:49;;;;;;;3.97;3.58;;;24.50;37.80;;;;;;5054188;28;20396;-69
2022/04/26 13:31:14;;;;;;;4.40;3.40;;;24.50;38.40;;;;;;5053867;28;20409;-68
2022/04/26 13:33:42;;;;;;;3.83;3.40;;;24.50;37.80;;;;;;5054128;28;20438;-68
2022/04/26 13:36:08;;;;;;;4.40;3.67;;;24.50;37.80;;;;;;5053980;28;20923;-69
2022/04/26 13:38:33;;;;;;;3.75;3.35;;;24.50;38.00;;;;;;5054185;28;20394;-69
2022/04/26 13:41:00;;;;;;;4.32;3.78;;;24.40;38.00;;;;;;5052575;28;20455;-68
2022/04/26 13:43:25;;;;;;;3.70;3.40;;;24.40;38.00;;;;;;5052555;28;20463;-68
2022/04/26 13:45:51;;;;;;;3.93;3.20;;;24.40;37.80;;;;;;5054006;28;20873;-67
2022/04/26 13:48:17;;;;;;;4.30;3.40;;;24.40;37.80;;;;;;5053897;28;20467;-68
2022/04/26 13:50:43;;;;;;;3.80;2.95;;;24.40;37.80;;;;;;5053860;28;20393;-68
2022/04/26 13:53:09;;;;;;;3.50;3.00;;;24.40;37.70;;;;;;5053705;28;20450;-67
2022/04/26 13:55:34;;;;;;;3.70;3.17;;;24.40;37.70;;;;;;5053849;28;20466;-69
2022/04/26 13:58:03;;;;;;;3.60;2.80;;;24.40;37.60;;;;;;5053784;28;20393;-67
2022/04/26 14:00:30;;;;;;;5.40;3.30;;;24.40;37.60;;;;;;5053509;28;20382;-69
2022/04/26 14:02:56;;;;;;;6.40;3.00;;;24.30;38.00;;;;;;5053728;28;20398;-66
2022/04/26 14:05:24;;;;;;;9.15;3.45;;;24.30;38.10;;;;;;5053211;28;20847;-67
2022/04/26 14:07:50;;;;;;;4.95;2.92;;;24.30;38.20;;;;;;5053583;28;20414;-69
2022/04/26 14:10:16;;;;;;;7.00;3.03;;;24.20;38.50;;;;;;5053679;28;20385;-70
2022/04/26 14:12:42;;;;;;;6.13;3.83;;;24.30;38.90;;;;;;5053543;28;20427;-69
2022/04/26 14:23:20;;;;;;;6.30;2.88;;;24.70;39.80;;;;;;5043502;28;20430;-71
2022/04/26 14:25:46;;;;;;;6.45;3.20;;;24.80;39.50;;;;;;5041658;28;20407;-69
2022/04/26 14:28:12;;;;;;;5.20;3.10;;;24.80;39.40;;;;;;5041030;28;20490;-68
2022/04/26 14:30:38;;;;;;;3.78;2.80;;;24.90;39.70;;;;;;5040962;28;20811;-69
2022/04/26 14:33:03;;;;;;;5.63;3.03;;;25.00;39.40;;;;;;5042816;28;20402;-68
2022/04/26 14:35:31;;;;;;;3.80;3.25;;;25.00;38.90;;;;;;5044048;28;20813;-68
2022/04/26 14:37:58;;;;;;;5.50;3.28;;;25.00;38.90;;;;;;5053189;28;20394;-69
2022/04/26 14:40:24;;;;;;;7.05;3.55;;;25.10;38.30;;;;;;5053031;28;20872;-68
2022/04/26 14:42:50;;;;;;;4.03;2.97;;;25.10;38.40;;;;;;5052984;28;20472;-68
2022/04/26 14:45:16;;;;;;;5.22;3.13;;;25.10;38.00;;;;;;5051307;28;20397;-68
2022/04/26 14:47:42;;;;;;;4.83;3.03;;;25.20;38.30;;;;;;5052824;28;20769;-68
2022/04/26 14:50:09;;;;;;;6.32;2.97;;;25.20;38.10;;;;;;5052708;28;20413;-68
2022/04/26 14:52:36;;;;;;;5.78;2.97;;;25.30;38.70;;;;;;5052883;28;20390;-69
2022/04/26 14:55:04;;;;;;;6.00;3.00;;;25.30;38.90;;;;;;5052839;28;20401;-67
2022/04/26 14:57:29;;;;;;;6.80;2.95;;;25.30;39.50;;;;;;5052222;28;20449;-69
2022/04/26 14:59:55;;;;;;;4.53;2.67;;;25.40;39.60;;;;;;5052342;28;20443;-69
2022/04/26 15:02:21;;;;;;;5.07;2.97;;;25.40;39.40;;;;;;5052396;28;20441;-67
2022/04/26 15:04:48;;;;;;;4.90;3.00;;;25.50;40.30;;;;;;5052482;28;20398;-69
2022/04/26 15:07:14;;;;;;;7.15;3.08;;;25.40;40.40;;;;;;5052145;28;20405;-66
2022/04/26 15:09:43;;;;;;;5.70;2.67;;;25.40;40.70;;;;;;5043505;28;20385;-67
2022/04/26 15:17:55;;;;;;;5.20;2.60;;;25.50;40.90;;;;;;5039740;28;20406;-69
2022/04/26 15:20:20;;;;;;;5.38;2.45;;;25.50;40.60;;;;;;5041482;28;20387;-69
2022/04/26 15:22:46;;;;;;;4.87;2.60;;;25.50;40.60;;;;;;5039961;28;20402;-69
2022/04/26 15:25:12;;;;;;;5.22;2.47;;;25.50;40.50;;;;;;5042664;28;20750;-68
2022/04/26 15:27:39;;;;;;;3.90;2.50;;;25.50;39.60;;;;;;5052161;28;20401;-70
2022/04/26 15:30:07;;;;;;;4.87;2.50;;;25.50;40.10;;;;;;5084298;28;20396;-69
2022/04/26 15:32:33;;;;;;;5.05;2.47;;;25.60;39.90;;;;;;5052123;28;20464;-69
2022/04/26 15:34:59;;;;;;;4.32;2.50;;;25.50;39.60;;;;;;5050711;28;20477;-70
2022/04/26 15:37:25;;;;;;;3.60;2.37;;;25.50;39.50;;;;;;5050226;28;21081;-69
2022/04/26 15:39:54;;;;;;;3.58;2.17;;;25.50;39.40;;;;;;5051637;28;20390;-67
2022/04/26 15:42:23;;;;;;;3.38;2.00;;;25.50;38.40;;;;;;5051810;28;20429;-69
2022/04/26 15:44:50;;;;;;;6.80;2.20;;;25.40;38.90;;;;;;5051788;28;20447;-69
2022/04/26 15:47:16;;;;;;;5.40;1.90;;;25.30;39.10;;;;;;5051487;28;20397;-69
2022/04/26 15:49:42;;;;;;;8.30;1.80;;;25.40;39.00;;;;;;5051795;28;20424;-69
2022/04/26 15:52:08;;;;;;;8.15;1.90;;;25.40;39.00;;;;;;5051726;28;20421;-69
2022/04/26 15:54:35;;;;;;;7.93;1.90;;;25.40;39.40;;;;;;5051718;28;20796;-69
2022/04/26 15:57:02;;;;;;;7.40;1.80;;;25.50;38.60;;;;;;5050323;28;20418;-70
2022/04/26 15:59:28;;;;;;;8.82;1.95;;;25.60;39.00;;;;;;5051072;28;20381;-67
2022/04/26 16:01:54;;;;;;;8.30;1.63;;;25.70;39.50;;;;;;5050121;28;20416;-66
2022/04/26 16:04:20;;;;;;;5.95;1.70;;;25.80;40.00;;;;;;5051407;28;20830;-70
2022/04/26 16:06:45;;;;;;;3.90;1.52;;;25.80;40.80;;;;;;5051473;28;20386;-70
2022/04/26 16:22:53;;;;;;;5.25;1.50;;;25.50;40.50;;;;;;5039879;28;20486;-67
2022/04/26 16:25:19;;;;;;;5.40;1.53;;;25.50;40.60;;;;;;5039241;28;20476;-69
2022/04/26 16:27:46;;;;;;;4.30;1.40;;;25.50;40.30;;;;;;5040874;28;20389;-67
2022/04/26 16:30:12;;;;;;;7.43;1.40;;;25.50;40.30;;;;;;5039680;28;20823;-68
2022/04/26 16:32:38;;;;;;;3.73;1.50;;;25.40;40.10;;;;;;5039915;28;20909;-67
2022/04/26 16:35:08;;;;;;;3.33;1.25;;;25.40;40.20;;;;;;5040858;28;20494;-70
2022/04/26 16:37:38;;;;;;;5.45;1.60;;;25.30;39.70;;;;;;5036418;28;20492;-67
2022/04/26 16:40:04;;;;;;;5.40;1.50;;;25.30;40.20;;;;;;5039862;28;20385;-70
2022/04/26 16:42:30;;;;;;;3.50;1.20;;;25.30;39.80;;;;;;5040675;28;20857;-67
2022/04/26 16:44:56;;;;;;;4.78;1.15;;;25.30;39.40;;;;;;5043431;28;20385;-66
2022/04/26 16:47:22;;;;;;;4.80;1.30;;;25.30;38.80;;;;;;5043916;28;21046;-66
2022/04/26 16:49:48;;;;;;;5.83;1.23;;;25.20;38.60;;;;;;5042793;28;20396;-67
2022/04/26 16:52:14;;;;;;;4.53;1.17;;;25.20;38.20;;;;;;5045788;28;20398;-68
2022/04/26 16:54:39;;;;;;;2.15;0.95;;;25.20;37.80;;;;;;5044746;28;20731;-66
2022/04/26 16:57:05;;;;;;;2.00;1.20;;;25.10;37.50;;;;;;5044877;28;20442;-67
2022/04/26 16:59:31;;;;;;;3.97;1.10;;;25.10;37.40;;;;;;5045012;28;20382;-66
2022/04/26 17:01:57;;;;;;;2.67;1.20;;;25.10;37.30;;;;;;5042313;28;20551;-68
2022/04/26 17:04:23;;;;;;;3.45;1.10;;;25.10;37.30;;;;;;5044995;28;20387;-69
2022/04/26 17:06:51;;;;;;;2.25;1.20;;;25.00;37.20;;;;;;5042166;28;20390;-68
2022/04/26 17:09:20;;;;;;;2.00;1.10;;;25.00;37.30;;;;;;5034471;28;20430;-68
2022/04/26 17:11:47;;;;;;;2.60;1.10;;;25.00;37.50;;;;;;5040734;28;20447;-67
2022/04/26 17:14:14;;;;;;;3.17;1.10;;;24.90;37.50;;;;;;5044393;28;20398;-68
2022/04/26 17:16:42;;;;;;;1.60;1.02;;;24.90;37.30;;;;;;5042275;28;20411;-67
2022/04/26 17:19:08;;;;;;;2.40;0.90;;;24.90;37.40;;;;;;5045280;28;20390;-69